createdAt,value
2017-11-21T00:00:06.267Z,19.12
2017-11-21T00:00:38.804Z,18.02
2017-11-21T00:01:11.333Z,15.82
2017-11-21T00:01:43.856Z,15.32
2017-11-21T00:02:17.171Z,17.30
2017-11-21T00:02:49.739Z,17.87
2017-11-21T00:03:22.264Z,17.05
2017-11-21T00:03:54.970Z,17.23
2017-11-21T00:04:27.518Z,18.10
2017-11-21T00:05:00.047Z,17.58
2017-11-21T00:05:32.573Z,17.17
2017-11-21T00:06:05.117Z,16.67
2017-11-21T00:06:37.645Z,16.83
2017-11-21T00:07:10.165Z,17.33
2017-11-21T00:07:42.692Z,17.17
2017-11-21T00:08:15.224Z,16.45
2017-11-21T00:08:47.749Z,15.40
2017-11-21T00:09:20.276Z,16.70
2017-11-21T00:09:52.807Z,14.90
2017-11-21T00:10:25.340Z,16.65
2017-11-21T00:10:57.869Z,15.65
2017-11-21T00:11:30.413Z,16.95
2017-11-21T00:12:02.920Z,16.70
2017-11-21T00:12:35.432Z,16.35
2017-11-21T00:13:08.251Z,14.50
2017-11-21T00:13:40.822Z,15.70
2017-11-21T00:14:13.394Z,14.82
2017-11-21T00:14:45.920Z,15.75
2017-11-21T00:15:18.460Z,16.75
2017-11-21T00:15:51.015Z,14.75
2017-11-21T00:16:23.572Z,16.30
2017-11-21T00:16:56.112Z,14.70
2017-11-21T00:17:28.640Z,15.45
2017-11-21T00:18:01.168Z,16.33
2017-11-21T00:18:33.713Z,15.63
2017-11-21T00:19:06.320Z,17.17
2017-11-21T00:19:38.829Z,15.95
2017-11-21T00:20:11.348Z,16.37
2017-11-21T00:20:44.642Z,15.60
2017-11-21T00:21:17.162Z,15.90
2017-11-21T00:21:49.695Z,16.25
2017-11-21T00:22:30.994Z,16.37
2017-11-21T00:23:03.524Z,15.13
2017-11-21T00:23:36.051Z,15.40
2017-11-21T00:24:08.581Z,15.50
2017-11-21T00:24:41.117Z,14.93
2017-11-21T00:25:13.657Z,16.23
2017-11-21T00:25:46.337Z,15.13
2017-11-21T00:26:18.863Z,14.52
2017-11-21T00:26:51.390Z,15.63
2017-11-21T00:27:23.929Z,15.07
2017-11-21T00:27:56.465Z,14.50
2017-11-21T00:28:29.760Z,14.20
2017-11-21T00:29:02.282Z,16.52
2017-11-21T00:29:34.799Z,15.23
2017-11-21T00:30:07.350Z,15.48
2017-11-21T00:30:39.874Z,15.48
2017-11-21T00:31:12.407Z,15.48
2017-11-21T00:31:44.942Z,15.27
2017-11-21T00:32:17.500Z,14.40
2017-11-21T00:32:50.092Z,16.50
2017-11-21T00:33:22.643Z,15.30
2017-11-21T00:33:55.164Z,15.93
2017-11-21T00:34:27.700Z,15.25
2017-11-21T00:35:00.229Z,16.70
2017-11-21T00:35:32.771Z,14.90
2017-11-21T00:36:06.285Z,14.75
2017-11-21T00:36:39.749Z,14.15
2017-11-21T00:37:12.897Z,14.43
2017-11-21T00:37:46.463Z,16.65
2017-11-21T00:38:18.986Z,15.00
2017-11-21T00:38:51.551Z,14.48
2017-11-21T00:39:24.141Z,14.52
2017-11-21T00:39:59.459Z,15.18
2017-11-21T00:40:31.988Z,14.98
2017-11-21T00:41:04.511Z,15.15
2017-11-21T00:41:37.031Z,15.65
2017-11-21T00:42:09.557Z,13.70
2017-11-21T00:46:23.952Z,13.02
2017-11-21T00:46:57.249Z,14.68
2017-11-21T00:47:29.779Z,13.35
2017-11-21T00:48:02.288Z,15.07
2017-11-21T00:48:34.842Z,14.90
2017-11-21T00:49:07.371Z,14.55
2017-11-21T00:49:40.693Z,14.15
2017-11-21T00:50:13.225Z,15.00
2017-11-21T00:50:46.532Z,15.15
2017-11-21T00:51:19.114Z,15.02
2017-11-21T00:51:51.665Z,14.95
2017-11-21T00:52:24.186Z,14.00
2017-11-21T00:52:56.713Z,15.55
2017-11-21T00:53:29.241Z,13.62
2017-11-21T00:54:01.752Z,15.65
2017-11-21T00:54:34.299Z,15.85
2017-11-21T00:55:06.845Z,14.73
2017-11-21T01:10:26.109Z,12.20
2017-11-21T01:10:59.351Z,13.48
2017-11-21T01:11:31.893Z,12.93
2017-11-21T01:12:04.413Z,13.80
2017-11-21T01:12:36.948Z,13.30
2017-11-21T01:13:09.483Z,13.45
2017-11-21T01:13:42.008Z,13.18
2017-11-21T01:41:28.206Z,13.95
2017-11-21T01:42:00.740Z,13.02
2017-11-21T01:42:33.274Z,14.98
2017-11-21T01:43:05.786Z,14.13
2017-11-21T01:43:38.299Z,13.70
2017-11-21T01:44:10.818Z,14.45
2017-11-21T01:44:43.332Z,14.60
2017-11-21T01:45:15.853Z,15.52
2017-11-21T01:45:48.369Z,13.75
2017-11-21T01:46:20.906Z,15.00
2017-11-21T01:46:53.469Z,13.95
2017-11-21T01:47:26.093Z,13.90
2017-11-21T01:47:58.657Z,14.30
2017-11-21T01:48:31.183Z,12.85
2017-11-21T01:49:03.713Z,14.35
2017-11-21T01:49:36.245Z,13.43
2017-11-21T01:50:08.795Z,14.00
2017-11-21T01:50:41.493Z,14.80
2017-11-21T01:51:14.032Z,13.10
2017-11-21T01:51:46.572Z,14.07
2017-11-21T01:52:19.129Z,15.77
2017-11-21T01:52:51.660Z,12.98
2017-11-21T01:53:25.149Z,14.02
2017-11-21T01:53:58.704Z,14.02
2017-11-21T01:54:31.422Z,14.00
2017-11-21T01:55:03.943Z,14.85
2017-11-21T01:55:36.466Z,11.88
2017-11-21T01:56:09.738Z,13.65
2017-11-21T01:56:42.284Z,14.48
2017-11-21T01:57:14.817Z,13.95
2017-11-21T01:57:47.476Z,13.55
2017-11-21T01:58:20.040Z,13.98
2017-11-21T01:58:52.707Z,13.80
2017-11-21T01:59:25.246Z,15.00
2017-11-21T01:59:57.777Z,13.32
2017-11-21T02:00:30.303Z,14.43
2017-11-21T02:01:02.843Z,13.40
2017-11-21T02:01:35.343Z,13.68
2017-11-21T02:02:07.871Z,14.07
2017-11-21T02:02:40.396Z,12.93
2017-11-21T02:03:12.935Z,13.30
2017-11-21T02:03:45.452Z,13.45
2017-11-21T02:04:17.984Z,13.38
2017-11-21T02:04:50.491Z,13.75
2017-11-21T02:05:23.008Z,13.15
2017-11-21T02:05:55.517Z,14.77
2017-11-21T02:06:28.064Z,13.50
2017-11-21T02:07:01.365Z,14.60
2017-11-21T02:07:33.872Z,14.40
2017-11-21T02:08:06.380Z,15.57
2017-11-21T02:08:39.677Z,13.77
2017-11-21T02:09:12.209Z,13.88
2017-11-21T02:09:44.747Z,14.00
2017-11-21T02:10:17.281Z,13.88
2017-11-21T02:10:49.831Z,13.45
2017-11-21T02:11:22.340Z,14.13
2017-11-21T02:11:55.654Z,14.32
2017-11-21T02:12:28.185Z,13.93
2017-11-21T02:13:00.715Z,14.35
2017-11-21T02:13:33.256Z,13.73
2017-11-21T02:14:05.792Z,13.95
2017-11-21T02:14:38.319Z,13.45
2017-11-21T02:15:10.852Z,14.10
2017-11-21T02:15:43.366Z,13.93
2017-11-21T02:16:15.879Z,14.05
2017-11-21T02:16:48.421Z,13.95
2017-11-21T02:17:21.729Z,13.80
2017-11-21T02:17:54.248Z,13.90
2017-11-21T02:18:26.773Z,13.00
2017-11-21T02:18:59.285Z,14.18
2017-11-21T02:19:31.811Z,12.65
2017-11-21T02:20:04.343Z,14.32
2017-11-21T02:20:36.878Z,14.43
2017-11-21T02:21:10.459Z,14.70
2017-11-21T02:21:43.164Z,14.10
2017-11-21T02:22:16.569Z,13.25
2017-11-21T02:22:49.094Z,14.63
2017-11-21T02:23:21.622Z,13.73
2017-11-21T02:23:54.275Z,13.62
2017-11-21T02:24:26.971Z,14.60
2017-11-21T02:25:00.300Z,13.00
2017-11-21T02:25:32.873Z,14.30
2017-11-21T02:26:07.320Z,13.98
2017-11-21T02:26:41.167Z,13.80
2017-11-21T02:27:14.464Z,13.60
2017-11-21T02:27:46.998Z,12.85
2017-11-21T02:28:21.998Z,13.73
2017-11-21T02:28:55.425Z,14.35
2017-11-21T02:29:28.381Z,13.40
2017-11-21T02:30:00.925Z,14.27
2017-11-21T02:30:34.239Z,15.00
2017-11-21T02:31:06.773Z,14.02
2017-11-21T02:31:39.310Z,14.65
2017-11-21T02:32:11.863Z,13.85
2017-11-21T02:32:44.389Z,14.52
2017-11-21T02:33:16.957Z,14.05
2017-11-21T02:33:49.472Z,14.70
2017-11-21T02:34:22.785Z,14.05
2017-11-21T02:34:55.298Z,15.00
2017-11-21T02:35:27.842Z,13.18
2017-11-21T02:36:00.579Z,13.95
2017-11-21T02:36:33.092Z,13.32
2017-11-21T02:37:05.622Z,13.40
2017-11-21T02:37:38.295Z,13.65
2017-11-21T02:38:10.812Z,14.23
2017-11-21T02:38:43.344Z,13.50
2017-11-21T02:39:15.860Z,13.07
2017-11-21T02:39:48.420Z,13.73
2017-11-21T02:40:20.939Z,14.18
2017-11-21T02:40:53.494Z,13.38
2017-11-21T02:41:26.069Z,14.20
2017-11-21T02:41:58.621Z,14.85
2017-11-21T02:42:31.193Z,13.95
2017-11-21T02:43:03.715Z,14.10
2017-11-21T02:43:36.244Z,13.90
2017-11-21T02:44:09.529Z,13.62
2017-11-21T02:44:42.818Z,13.88
2017-11-21T02:45:15.347Z,13.27
2017-11-21T02:45:47.869Z,13.23
2017-11-21T02:46:20.561Z,13.45
2017-11-21T02:46:53.127Z,14.75
2017-11-21T02:47:25.657Z,13.15
2017-11-21T02:47:59.035Z,12.68
2017-11-21T02:48:31.559Z,13.48
2017-11-21T02:49:04.106Z,14.32
2017-11-21T02:49:36.629Z,13.90
2017-11-21T02:50:09.155Z,14.35
2017-11-21T02:50:42.478Z,12.90
2017-11-21T02:51:15.036Z,13.50
2017-11-21T02:51:47.590Z,14.10
2017-11-21T02:52:20.273Z,13.80
2017-11-21T02:52:52.791Z,14.80
2017-11-21T02:53:25.895Z,15.15
2017-11-21T02:53:58.423Z,12.90
2017-11-21T02:54:30.957Z,13.73
2017-11-21T02:55:03.481Z,14.05
2017-11-21T02:55:35.995Z,15.07
2017-11-21T02:56:08.503Z,13.05
2017-11-21T02:56:41.044Z,13.95
2017-11-21T02:57:13.587Z,14.07
2017-11-21T02:57:46.121Z,13.07
2017-11-21T02:58:18.709Z,13.65
2017-11-21T02:58:52.384Z,14.32
2017-11-21T02:59:24.908Z,13.60
2017-11-21T02:59:58.229Z,14.15
2017-11-21T03:00:30.753Z,14.52
2017-11-21T03:01:03.271Z,14.05
2017-11-21T03:01:36.480Z,14.20
2017-11-21T03:02:09.033Z,14.07
2017-11-21T03:02:41.580Z,14.85
2017-11-21T03:03:14.144Z,13.93
2017-11-21T03:03:46.675Z,14.05
2017-11-21T03:04:19.224Z,13.60
2017-11-21T03:04:51.765Z,12.15
2017-11-21T03:05:25.065Z,14.30
2017-11-21T03:05:57.730Z,12.98
2017-11-21T03:06:30.277Z,14.52
2017-11-21T03:07:02.877Z,13.85
2017-11-21T03:07:35.485Z,15.15
2017-11-21T03:08:08.099Z,15.13
2017-11-21T03:08:40.665Z,14.80
2017-11-21T03:09:13.189Z,14.20
2017-11-21T03:09:45.723Z,14.35
2017-11-21T03:10:18.321Z,15.18
2017-11-21T03:10:50.841Z,13.18
2017-11-21T03:11:23.397Z,13.95
2017-11-21T03:11:58.928Z,13.52
2017-11-21T03:12:31.590Z,13.45
2017-11-21T03:13:04.981Z,14.00
2017-11-21T03:13:37.536Z,13.23
2017-11-21T03:14:10.087Z,14.38
2017-11-21T03:14:42.650Z,14.63
2017-11-21T03:15:15.180Z,14.60
2017-11-21T03:15:47.696Z,15.25
2017-11-21T03:16:20.216Z,14.50
2017-11-21T03:16:53.529Z,14.80
2017-11-21T03:17:26.059Z,12.98
2017-11-21T03:17:58.603Z,14.25
2017-11-21T03:18:31.338Z,13.93
2017-11-21T03:19:03.876Z,13.15
2017-11-21T03:19:36.987Z,14.43
2017-11-21T03:20:21.365Z,16.50
2017-11-21T03:21:05.577Z,14.93
2017-11-21T03:21:49.872Z,13.75
2017-11-21T03:22:34.281Z,15.07
2017-11-21T03:23:18.559Z,14.40
2017-11-21T03:24:02.680Z,13.65
2017-11-21T03:24:47.064Z,12.75
2017-11-21T03:25:31.301Z,15.30
2017-11-21T03:26:15.699Z,14.30
2017-11-21T03:26:48.224Z,14.57
2017-11-21T03:27:32.408Z,13.32
2017-11-21T03:28:04.933Z,14.85
2017-11-21T03:28:39.140Z,14.57
2017-11-21T03:29:11.667Z,14.50
2017-11-21T03:29:44.185Z,15.02
2017-11-21T03:30:18.253Z,14.27
2017-11-21T03:30:50.794Z,12.90
2017-11-21T03:31:23.317Z,15.07
2017-11-21T03:31:55.874Z,13.50
2017-11-21T03:32:29.175Z,15.52
2017-11-21T03:33:01.697Z,14.02
2017-11-21T03:33:34.223Z,14.80
2017-11-21T03:34:06.762Z,13.95
2017-11-21T03:34:39.277Z,15.48
2017-11-21T03:35:11.810Z,13.40
2017-11-21T03:35:44.345Z,14.75
2017-11-21T03:36:16.869Z,14.57
2017-11-21T03:36:49.398Z,14.87
2017-11-21T03:37:21.933Z,16.20
2017-11-21T03:37:54.454Z,13.90
2017-11-21T03:38:26.976Z,15.60
2017-11-21T03:38:59.501Z,14.82
2017-11-21T03:39:32.043Z,14.45
2017-11-21T03:40:05.348Z,13.93
2017-11-21T03:40:38.673Z,15.00
2017-11-21T03:41:11.208Z,15.57
2017-11-21T03:41:43.733Z,15.00
2017-11-21T03:42:16.271Z,14.75
2017-11-21T03:42:48.828Z,15.02
2017-11-21T03:43:21.352Z,13.75
2017-11-21T03:43:54.637Z,15.48
2017-11-21T03:44:27.164Z,14.10
2017-11-21T03:44:59.696Z,15.18
2017-11-21T03:45:32.260Z,14.00
2017-11-21T03:46:04.823Z,14.40
2017-11-21T03:46:37.386Z,15.60
2017-11-21T03:47:09.899Z,14.07
2017-11-21T03:47:42.423Z,13.85
2017-11-21T03:48:14.968Z,13.55
2017-11-21T03:48:47.502Z,14.80
2017-11-21T03:49:20.019Z,13.77
2017-11-21T03:49:52.559Z,14.68
2017-11-21T03:50:25.090Z,14.55
2017-11-21T03:50:57.615Z,14.75
2017-11-21T03:51:30.150Z,14.00
2017-11-21T03:52:02.897Z,13.62
2017-11-21T03:52:36.375Z,13.48
2017-11-21T03:53:12.529Z,14.38
2017-11-21T03:53:45.045Z,14.52
2017-11-21T03:54:17.595Z,14.13
2017-11-21T03:54:51.070Z,13.15
2017-11-21T03:55:23.636Z,15.50
2017-11-21T03:55:56.179Z,14.95
2017-11-21T03:56:29.461Z,15.63
2017-11-21T03:57:03.000Z,16.45
2017-11-21T03:57:35.632Z,12.60
2017-11-21T03:58:08.172Z,14.15
2017-11-21T03:58:41.456Z,13.77
2017-11-21T03:59:14.756Z,13.20
2017-11-21T03:59:47.295Z,14.20
2017-11-21T04:00:19.831Z,14.20
2017-11-21T04:00:54.134Z,12.93
2017-11-21T04:01:26.949Z,14.98
2017-11-21T04:01:59.525Z,14.95
2017-11-21T04:02:32.083Z,13.20
2017-11-21T04:03:04.601Z,14.70
2017-11-21T04:03:37.116Z,15.18
2017-11-21T04:04:09.683Z,14.10
2017-11-21T04:04:42.215Z,14.20
2017-11-21T04:05:14.731Z,13.90
2017-11-21T04:05:47.256Z,14.40
2017-11-21T04:06:19.770Z,14.70
2017-11-21T04:06:52.303Z,13.98
2017-11-21T04:07:24.828Z,14.18
2017-11-21T04:07:58.149Z,14.87
2017-11-21T04:08:30.674Z,14.38
2017-11-21T04:09:03.963Z,13.80
2017-11-21T04:09:36.486Z,13.75
2017-11-21T04:10:09.001Z,13.73
2017-11-21T04:10:41.537Z,14.57
2017-11-21T04:11:14.066Z,14.85
2017-11-21T04:11:46.584Z,14.25
2017-11-21T04:12:19.098Z,15.30
2017-11-21T04:12:51.620Z,14.10
2017-11-21T04:13:24.173Z,13.65
2017-11-21T04:13:56.706Z,14.80
2017-11-21T04:14:29.241Z,14.18
2017-11-21T04:15:01.759Z,14.90
2017-11-21T04:15:34.285Z,13.77
2017-11-21T04:16:06.833Z,14.60
2017-11-21T04:16:39.354Z,14.48
2017-11-21T04:17:11.905Z,13.73
2017-11-21T04:17:45.197Z,14.05
2017-11-21T04:18:17.720Z,13.25
2017-11-21T04:18:50.249Z,13.95
2017-11-21T04:19:22.776Z,12.95
2017-11-21T04:19:56.073Z,14.07
2017-11-21T04:20:28.601Z,14.50
2017-11-21T04:21:01.224Z,13.88
2017-11-21T04:21:33.832Z,14.60
2017-11-21T04:22:06.553Z,15.77
2017-11-21T04:22:39.202Z,14.82
2017-11-21T04:23:11.722Z,15.02
2017-11-21T04:23:44.262Z,14.32
2017-11-21T04:24:16.804Z,15.18
2017-11-21T04:24:49.343Z,14.52
2017-11-21T04:25:21.886Z,14.60
2017-11-21T04:25:54.403Z,15.00
2017-11-21T04:26:26.953Z,14.25
2017-11-21T04:26:59.501Z,13.90
2017-11-21T04:27:32.025Z,15.50
2017-11-21T04:28:04.544Z,14.35
2017-11-21T04:28:37.053Z,13.50
2017-11-21T04:29:09.568Z,15.10
2017-11-21T04:29:42.166Z,15.02
2017-11-21T04:30:14.704Z,15.02
2017-11-21T04:30:47.221Z,15.20
2017-11-21T04:31:19.738Z,14.85
2017-11-21T04:31:52.268Z,16.42
2017-11-21T04:32:24.882Z,15.10
2017-11-21T04:32:57.530Z,15.73
2017-11-21T04:33:30.086Z,15.18
2017-11-21T04:34:02.621Z,14.35
2017-11-21T04:34:35.161Z,14.65
2017-11-21T04:35:07.695Z,14.65
2017-11-21T04:35:40.201Z,15.32
2017-11-21T04:36:12.735Z,15.65
2017-11-21T04:36:45.251Z,14.45
2017-11-21T04:37:17.884Z,14.75
2017-11-21T04:37:50.424Z,14.87
2017-11-21T04:38:22.957Z,14.15
2017-11-21T04:38:55.471Z,14.45
2017-11-21T04:39:28.001Z,14.27
2017-11-21T04:40:00.531Z,14.52
2017-11-21T04:40:33.056Z,13.95
2017-11-21T04:41:05.567Z,14.43
2017-11-21T04:41:38.087Z,15.40
2017-11-21T04:42:10.594Z,14.45
2017-11-21T04:42:43.121Z,17.27
2017-11-21T04:43:16.544Z,16.35
2017-11-21T04:43:49.061Z,17.17
2017-11-21T04:44:21.590Z,15.15
2017-11-21T04:44:54.110Z,14.93
2017-11-21T04:45:26.675Z,15.35
2017-11-21T04:45:59.237Z,15.52
2017-11-21T04:46:31.776Z,15.30
2017-11-21T04:47:04.319Z,14.23
2017-11-21T04:47:36.841Z,14.10
2017-11-21T04:48:09.356Z,14.52
2017-11-21T04:48:41.915Z,14.52
2017-11-21T04:49:14.432Z,15.77
2017-11-21T04:49:46.952Z,16.23
2017-11-21T04:50:19.484Z,16.60
2017-11-21T04:50:52.004Z,15.75
2017-11-21T04:51:24.535Z,15.65
2017-11-21T04:51:57.067Z,15.82
2017-11-21T04:52:29.823Z,15.07
2017-11-21T04:53:02.625Z,15.90
2017-11-21T04:53:35.924Z,15.88
2017-11-21T04:54:08.452Z,15.00
2017-11-21T04:54:40.973Z,14.40
2017-11-21T04:55:13.513Z,16.17
2017-11-21T04:55:46.044Z,16.55
2017-11-21T04:56:18.574Z,14.90
2017-11-21T04:56:51.133Z,14.63
2017-11-21T04:57:23.652Z,15.30
2017-11-21T04:57:56.180Z,15.82
2017-11-21T04:58:28.707Z,15.13
2017-11-21T04:59:02.132Z,13.85
2017-11-21T04:59:34.669Z,14.85
2017-11-21T05:00:07.184Z,16.10
2017-11-21T05:00:39.728Z,15.48
2017-11-21T05:01:12.242Z,14.70
2017-11-21T05:01:45.535Z,14.55
2017-11-21T05:02:18.842Z,15.70
2017-11-21T05:02:51.379Z,16.02
2017-11-21T05:03:24.721Z,16.98
2017-11-21T05:03:57.253Z,16.75
2017-11-21T05:04:29.809Z,16.08
2017-11-21T05:05:02.335Z,15.88
2017-11-21T05:05:34.856Z,16.92
2017-11-21T05:06:07.398Z,14.65
2017-11-21T05:06:39.937Z,15.25
2017-11-21T05:07:13.232Z,15.90
2017-11-21T05:07:45.767Z,15.65
2017-11-21T05:08:18.295Z,16.23
2017-11-21T05:08:50.816Z,15.82
2017-11-21T05:09:24.130Z,16.62
2017-11-21T05:09:56.657Z,16.08
2017-11-21T05:10:29.192Z,16.70
2017-11-21T05:11:01.724Z,15.95
2017-11-21T05:11:34.243Z,17.00
2017-11-21T05:12:07.528Z,17.37
2017-11-21T05:12:40.816Z,17.83
2017-11-21T05:13:14.113Z,16.58
2017-11-21T05:13:46.635Z,17.15
2017-11-21T05:14:19.168Z,17.33
2017-11-21T05:14:51.701Z,17.25
2017-11-21T05:15:24.236Z,17.30
2017-11-21T05:15:56.837Z,19.42
2017-11-21T05:16:29.356Z,18.20
2017-11-21T05:17:01.913Z,18.23
2017-11-21T05:17:34.529Z,18.58
2017-11-21T05:18:07.038Z,17.20
2017-11-21T05:18:39.594Z,17.20
2017-11-21T05:19:12.117Z,17.52
2017-11-21T05:19:44.678Z,17.55
2017-11-21T05:20:17.202Z,16.20
2017-11-21T05:20:49.724Z,16.92
2017-11-21T05:21:22.268Z,16.87
2017-11-21T05:21:54.805Z,15.95
2017-11-21T05:22:28.092Z,16.98
2017-11-21T05:23:00.783Z,17.55
2017-11-21T05:23:33.288Z,15.50
2017-11-21T05:24:05.839Z,17.10
2017-11-21T05:24:38.480Z,17.30
2017-11-21T05:25:11.013Z,16.20
2017-11-21T05:25:43.536Z,17.17
2017-11-21T05:26:16.063Z,18.90
2017-11-21T05:26:48.593Z,17.95
2017-11-21T05:27:21.133Z,16.62
2017-11-21T05:27:53.725Z,17.35
2017-11-21T05:28:26.257Z,17.70
2017-11-21T05:28:58.779Z,18.08
2017-11-21T05:29:31.336Z,16.65
2017-11-21T05:30:03.856Z,17.12
2017-11-21T05:30:36.381Z,18.12
2017-11-21T05:31:08.929Z,17.33
2017-11-21T05:31:41.469Z,15.88
2017-11-21T05:32:13.986Z,17.42
2017-11-21T05:32:58.326Z,17.85
2017-11-21T05:33:39.510Z,17.55
2017-11-21T05:34:12.091Z,18.10
2017-11-21T05:34:44.634Z,16.30
2017-11-21T05:35:17.165Z,17.50
2017-11-21T05:35:49.689Z,15.82
2017-11-21T05:36:22.209Z,17.65
2017-11-21T05:36:54.815Z,17.73
2017-11-21T05:37:27.442Z,16.45
2017-11-21T05:37:59.969Z,16.12
2017-11-21T05:38:32.547Z,16.67
2017-11-21T05:39:05.084Z,17.35
2017-11-21T05:39:37.636Z,18.77
2017-11-21T05:40:10.954Z,17.87
2017-11-21T05:40:43.491Z,17.33
2017-11-21T05:41:16.833Z,18.15
2017-11-21T05:41:49.378Z,16.30
2017-11-21T05:42:21.906Z,16.77
2017-11-21T05:42:55.196Z,17.12
2017-11-21T05:43:27.725Z,17.55
2017-11-21T05:44:00.380Z,16.33
2017-11-21T05:44:32.892Z,17.25
2017-11-21T05:45:05.435Z,18.05
2017-11-21T05:45:38.758Z,17.60
2017-11-21T05:46:11.297Z,17.73
2017-11-21T05:46:43.844Z,16.37
2017-11-21T05:47:17.132Z,18.98
2017-11-21T05:47:50.416Z,18.35
2017-11-21T05:48:23.024Z,18.00
2017-11-21T05:48:55.547Z,17.95
2017-11-21T05:49:28.847Z,16.85
2017-11-21T05:50:01.389Z,18.85
2017-11-21T05:50:33.949Z,17.10
2017-11-21T05:51:07.254Z,19.73
2017-11-21T05:51:39.797Z,18.10
2017-11-21T05:52:12.345Z,18.85
2017-11-21T05:52:44.904Z,18.45
2017-11-21T05:53:17.433Z,18.33
2017-11-21T05:53:49.968Z,18.62
2017-11-21T05:54:22.527Z,17.05
2017-11-21T05:54:55.068Z,17.52
2017-11-21T05:55:28.360Z,17.15
2017-11-21T05:56:01.665Z,17.12
2017-11-21T05:56:34.226Z,18.33
2017-11-21T05:57:06.748Z,17.45
2017-11-21T05:57:39.263Z,18.20
2017-11-21T05:58:11.780Z,17.42
2017-11-21T05:58:44.311Z,17.50
2017-11-21T05:59:16.852Z,17.58
2017-11-21T05:59:49.392Z,16.42
2017-11-21T06:00:22.003Z,17.87
2017-11-21T06:00:54.748Z,17.67
2017-11-21T06:01:27.304Z,17.40
2017-11-21T06:01:59.866Z,18.40
2017-11-21T06:02:32.416Z,15.50
2017-11-21T06:03:05.023Z,14.98
2017-11-21T06:03:37.627Z,16.58
2017-11-21T06:04:10.222Z,16.55
2017-11-21T06:04:42.739Z,16.85
2017-11-21T06:05:15.305Z,16.90
2017-11-21T06:05:47.928Z,17.23
2017-11-21T06:06:20.467Z,16.83
2017-11-21T06:06:53.071Z,16.77
2017-11-21T06:07:25.703Z,16.35
2017-11-21T06:07:58.376Z,15.52
2017-11-21T06:08:30.955Z,16.50
2017-11-21T06:09:03.492Z,16.62
2017-11-21T06:09:36.020Z,15.50
2017-11-21T06:10:08.544Z,15.32
2017-11-21T06:10:41.088Z,15.98
2017-11-21T06:11:13.689Z,15.27
2017-11-21T06:11:46.222Z,15.50
2017-11-21T06:12:18.740Z,15.80
2017-11-21T06:12:51.449Z,16.50
2017-11-21T06:13:24.020Z,15.93
2017-11-21T06:13:56.691Z,15.40
2017-11-21T06:14:29.485Z,16.25
2017-11-21T06:15:02.052Z,16.65
2017-11-21T06:15:34.629Z,15.30
2017-11-21T06:16:07.187Z,16.35
2017-11-21T06:16:39.760Z,15.25
2017-11-21T06:17:12.368Z,15.40
2017-11-21T06:17:44.902Z,15.15
2017-11-21T06:18:18.261Z,14.20
2017-11-21T06:18:50.784Z,15.55
2017-11-21T06:19:23.452Z,16.45
2017-11-21T06:19:56.033Z,17.35
2017-11-21T06:20:28.644Z,16.70
2017-11-21T06:21:01.425Z,15.80
2017-11-21T06:21:34.797Z,16.20
2017-11-21T06:22:17.584Z,16.73
2017-11-21T06:22:51.430Z,15.07
2017-11-21T06:23:33.324Z,15.27
2017-11-21T06:24:15.001Z,15.38
2017-11-21T06:24:51.101Z,13.68
2017-11-21T06:25:24.733Z,14.60
2017-11-21T06:26:04.301Z,13.48
2017-11-21T06:26:38.127Z,15.05
2017-11-21T06:27:15.115Z,14.80
2017-11-21T06:27:48.414Z,13.30
2017-11-21T06:28:27.480Z,14.27
2017-11-21T06:29:01.757Z,13.80
2017-11-21T06:29:34.314Z,14.75
2017-11-21T06:30:08.140Z,13.60
2017-11-21T06:30:43.350Z,14.00
2017-11-21T06:31:20.577Z,14.18
2017-11-21T06:31:56.392Z,14.45
2017-11-21T06:32:48.550Z,14.27
2017-11-21T06:33:31.416Z,13.88
2017-11-21T06:34:04.745Z,14.15
2017-11-21T06:34:40.278Z,12.98
2017-11-21T06:35:53.243Z,13.15
2017-11-21T06:36:26.296Z,12.88
2017-11-21T06:37:02.918Z,13.20
2017-11-21T06:38:34.528Z,12.70
2017-11-21T06:39:14.132Z,13.32
2017-11-21T06:39:50.158Z,12.40
2017-11-21T06:40:27.299Z,12.50
2017-11-21T06:41:11.492Z,12.05
2017-11-21T06:41:46.086Z,13.35
2017-11-21T06:42:20.316Z,13.77
2017-11-21T06:42:54.633Z,14.52
2017-11-21T06:43:44.394Z,14.43
2017-11-21T06:44:28.542Z,13.70
2017-11-21T06:45:12.525Z,14.10
2017-11-21T06:45:45.043Z,12.73
2017-11-21T06:46:18.819Z,14.35
2017-11-21T06:46:53.628Z,13.20
2017-11-21T06:47:42.715Z,14.48
2017-11-21T06:48:21.090Z,15.02
2017-11-21T06:48:56.914Z,15.70
2017-11-21T06:49:38.021Z,14.95
2017-11-21T06:50:15.364Z,14.32
2017-11-21T06:50:52.701Z,15.50
2017-11-21T06:51:29.857Z,14.25
2017-11-21T06:52:09.791Z,13.05
2017-11-21T06:52:45.750Z,13.50
2017-11-21T06:53:18.887Z,13.02
2017-11-21T06:53:54.255Z,14.90
2017-11-21T06:54:33.012Z,12.32
2017-11-21T06:55:05.614Z,12.63
2017-11-21T06:55:41.685Z,13.00
2017-11-21T06:56:19.970Z,14.43
2017-11-21T06:57:02.173Z,14.10
2017-11-21T06:57:39.368Z,13.30
2017-11-21T06:58:29.736Z,13.75
2017-11-21T06:59:04.307Z,13.57
2017-11-21T06:59:54.040Z,14.05
2017-11-21T07:00:27.632Z,13.57
2017-11-21T07:01:00.998Z,13.38
2017-11-21T07:01:33.570Z,14.98
2017-11-21T07:02:06.348Z,14.25
2017-11-21T07:02:38.896Z,14.73
2017-11-21T07:03:11.421Z,13.73
2017-11-21T07:03:43.943Z,16.12
2017-11-21T07:04:17.245Z,13.80
2017-11-21T07:04:49.803Z,14.95
2017-11-21T07:05:22.322Z,13.50
2017-11-21T07:05:54.863Z,14.63
2017-11-21T07:06:27.435Z,14.50
2017-11-21T07:06:59.957Z,14.45
2017-11-21T07:07:32.486Z,14.90
2017-11-21T07:08:05.826Z,14.23
2017-11-21T07:08:38.429Z,15.65
2017-11-21T07:09:10.968Z,14.63
2017-11-21T07:09:43.490Z,16.20
2017-11-21T07:10:16.052Z,14.87
2017-11-21T07:10:48.580Z,14.80
2017-11-21T07:11:21.122Z,15.23
2017-11-21T07:11:53.653Z,15.13
2017-11-21T07:12:26.180Z,14.93
2017-11-21T07:12:58.719Z,13.10
2017-11-21T07:13:31.272Z,14.10
2017-11-21T07:14:03.793Z,14.38
2017-11-21T07:14:36.320Z,15.60
2017-11-21T07:15:08.861Z,14.95
2017-11-21T07:15:41.405Z,13.95
2017-11-21T07:16:13.932Z,14.50
2017-11-21T07:16:46.480Z,15.68
2017-11-21T07:17:19.097Z,14.32
2017-11-21T07:17:51.628Z,14.70
2017-11-21T07:18:24.173Z,14.70
2017-11-21T07:18:56.784Z,14.57
2017-11-21T07:19:29.324Z,14.63
2017-11-21T07:20:01.888Z,13.65
2017-11-21T07:20:34.436Z,14.63
2017-11-21T07:21:06.949Z,14.65
2017-11-21T07:21:39.496Z,14.85
2017-11-21T07:22:12.032Z,15.45
2017-11-21T07:22:44.587Z,14.77
2017-11-21T07:23:17.368Z,13.52
2017-11-21T07:23:50.005Z,14.27
2017-11-21T07:24:22.537Z,12.88
2017-11-21T07:24:55.103Z,13.32
2017-11-21T07:25:27.649Z,14.15
2017-11-21T07:26:00.228Z,14.15
2017-11-21T07:26:32.756Z,14.52
2017-11-21T07:27:05.273Z,16.10
2017-11-21T07:27:37.820Z,14.80
2017-11-21T07:28:10.424Z,14.38
2017-11-21T07:28:42.935Z,15.43
2017-11-21T07:29:15.492Z,15.80
2017-11-21T07:29:48.032Z,15.20
2017-11-21T07:30:20.683Z,15.10
2017-11-21T07:30:53.190Z,15.18
2017-11-21T07:31:25.776Z,15.10
2017-11-21T07:31:58.304Z,16.80
2017-11-21T07:32:30.840Z,15.45
2017-11-21T07:33:03.378Z,14.60
2017-11-21T07:33:36.180Z,13.90
2017-11-21T07:34:09.479Z,15.30
2017-11-21T07:34:42.172Z,14.27
2017-11-21T07:35:14.739Z,16.30
2017-11-21T07:35:47.301Z,14.05
2017-11-21T07:36:19.965Z,17.87
2017-11-21T07:36:52.527Z,16.15
2017-11-21T07:37:25.133Z,17.10
2017-11-21T07:37:57.684Z,16.05
2017-11-21T07:38:30.263Z,16.55
2017-11-21T07:39:02.829Z,16.87
2017-11-21T07:39:35.353Z,16.33
2017-11-21T07:40:07.892Z,14.95
2017-11-21T07:40:41.173Z,15.52
2017-11-21T07:41:13.850Z,15.70
2017-11-21T07:41:46.404Z,15.68
2017-11-21T07:42:19.708Z,16.00
2017-11-21T07:42:52.311Z,14.87
2017-11-21T07:43:24.901Z,15.85
2017-11-21T07:43:57.911Z,15.15
2017-11-21T07:44:30.485Z,16.23
2017-11-21T07:45:03.029Z,15.20
2017-11-21T07:45:35.565Z,14.27
2017-11-21T07:46:08.112Z,14.63
2017-11-21T07:46:40.724Z,15.20
2017-11-21T07:47:13.257Z,15.88
2017-11-21T07:47:45.791Z,15.40
2017-11-21T07:48:18.349Z,15.23
2017-11-21T07:48:50.922Z,15.10
2017-11-21T07:49:24.500Z,14.90
2017-11-21T07:49:57.020Z,15.48
2017-11-21T07:50:29.659Z,15.35
2017-11-21T07:51:02.241Z,17.70
2017-11-21T07:51:35.580Z,14.65
2017-11-21T07:52:08.099Z,15.60
2017-11-21T07:52:40.624Z,16.00
2017-11-21T07:53:13.248Z,15.90
2017-11-21T07:53:45.792Z,16.98
2017-11-21T07:54:18.425Z,15.55
2017-11-21T07:54:51.028Z,16.17
2017-11-21T07:55:23.548Z,15.80